createdAt,value
2023-03-20T00:01:20.162Z,28.90
2023-03-20T00:03:47.558Z,28.50
2023-03-20T00:06:19.576Z,26.58
2023-03-20T00:08:48.449Z,27.70
2023-03-20T00:11:28.963Z,29.25
2023-03-20T00:14:06.046Z,27.88
2023-03-20T00:16:38.385Z,29.40
2023-03-20T00:19:06.849Z,31.55
2023-03-20T00:21:34.243Z,28.23
2023-03-20T00:24:00.805Z,29.02
2023-03-20T00:26:33.708Z,26.08
2023-03-20T00:29:03.902Z,30.80
2023-03-20T00:31:33.782Z,28.58
2023-03-20T00:34:03.525Z,30.88
2023-03-20T00:36:30.324Z,26.13
2023-03-20T00:38:59.322Z,31.85
2023-03-20T00:41:37.333Z,29.10
2023-03-20T00:44:22.822Z,30.02
2023-03-20T00:46:53.612Z,31.27
2023-03-20T00:49:27.920Z,30.58
2023-03-20T00:51:55.124Z,31.30
2023-03-20T00:54:21.797Z,27.83
2023-03-20T00:56:55.324Z,31.10
2023-03-20T00:59:25.544Z,33.92
2023-03-20T01:01:52.332Z,31.70
2023-03-20T01:04:20.692Z,27.65
2023-03-20T01:06:47.951Z,29.58
2023-03-20T01:09:15.903Z,32.13
2023-03-20T01:11:45.813Z,29.45
2023-03-20T01:14:14.599Z,25.05
2023-03-20T01:16:42.020Z,27.83
2023-03-20T01:19:13.102Z,30.80
2023-03-20T01:21:40.363Z,24.77
2023-03-20T01:24:07.356Z,27.02
2023-03-20T01:26:36.688Z,26.52
2023-03-20T01:29:32.923Z,28.90
2023-03-20T01:31:59.533Z,25.55
2023-03-20T01:34:27.797Z,27.58
2023-03-20T01:36:58.762Z,27.60
2023-03-20T01:39:33.267Z,29.98
2023-03-20T01:42:00.495Z,26.70
2023-03-20T01:44:31.293Z,23.05
2023-03-20T01:47:01.272Z,26.65
2023-03-20T01:49:28.624Z,26.88
2023-03-20T01:51:58.929Z,24.33
2023-03-20T01:54:35.795Z,19.48
2023-03-20T01:57:14.884Z,19.30
2023-03-20T01:59:51.216Z,21.85
2023-03-20T02:02:28.525Z,17.52
2023-03-20T02:05:00.919Z,17.30
2023-03-20T02:07:27.990Z,18.13
2023-03-20T02:12:51.702Z,21.33
2023-03-20T02:15:29.714Z,17.17
2023-03-20T02:18:08.855Z,18.58
2023-03-20T02:21:17.008Z,18.98
2023-03-20T02:23:57.888Z,19.88
2023-03-20T02:26:55.573Z,26.30
2023-03-20T02:29:46.961Z,19.63
2023-03-20T02:32:32.332Z,20.58
2023-03-20T02:35:19.106Z,16.25
2023-03-20T02:37:48.844Z,17.40
2023-03-20T02:40:25.058Z,18.95
2023-03-20T02:43:14.260Z,19.77
2023-03-20T02:46:18.880Z,20.25
2023-03-20T02:49:13.540Z,13.38
2023-03-20T02:52:15.416Z,17.58
2023-03-20T02:54:52.117Z,18.33
2023-03-20T02:57:38.756Z,21.10
2023-03-20T03:00:29.229Z,17.65
2023-03-20T03:03:12.308Z,15.82
2023-03-20T03:05:45.329Z,19.50
2023-03-20T03:08:17.687Z,18.02
2023-03-20T03:10:51.028Z,20.52
2023-03-20T03:13:23.041Z,17.05
2023-03-20T03:15:55.502Z,19.52
2023-03-20T03:18:26.250Z,18.70
2023-03-20T03:20:58.068Z,22.40
2023-03-20T03:23:44.590Z,21.48
2023-03-20T03:26:18.700Z,21.40
2023-03-20T03:28:51.060Z,21.42
2023-03-20T03:31:19.132Z,18.88
2023-03-20T03:33:49.853Z,19.33
2023-03-20T03:36:44.964Z,19.17
2023-03-20T03:39:28.047Z,26.02
2023-03-20T03:42:09.187Z,20.65
2023-03-20T03:45:07.936Z,23.95
2023-03-20T03:47:46.330Z,24.80
2023-03-20T03:50:21.910Z,24.30
2023-03-20T03:52:50.874Z,28.35
2023-03-20T03:55:32.017Z,27.75
2023-03-20T03:58:10.630Z,31.35
2023-03-20T04:00:41.380Z,28.48
2023-03-20T04:03:09.896Z,31.55
2023-03-20T04:05:41.260Z,32.13
2023-03-20T04:08:07.882Z,28.05
2023-03-20T04:10:34.515Z,28.55
2023-03-20T04:13:01.307Z,31.88
2023-03-20T04:15:28.370Z,25.63
2023-03-20T04:17:55.601Z,29.83
2023-03-20T04:20:22.913Z,26.95
2023-03-20T04:22:49.622Z,25.50
2023-03-20T04:25:23.155Z,30.40
2023-03-20T04:27:52.766Z,28.85
2023-03-20T04:30:30.075Z,31.33
2023-03-20T04:33:13.412Z,23.83
2023-03-20T04:36:02.055Z,26.92
2023-03-20T04:38:28.730Z,29.30
2023-03-20T04:40:55.878Z,25.38
2023-03-20T04:43:22.664Z,25.42
2023-03-20T04:45:49.428Z,22.45
2023-03-20T04:48:16.033Z,25.88
2023-03-20T04:50:42.661Z,29.70
2023-03-20T04:53:10.876Z,25.95
2023-03-20T04:55:37.762Z,31.23
2023-03-20T04:58:04.530Z,25.85
2023-03-20T05:00:31.269Z,24.50
2023-03-20T05:02:58.125Z,25.27
2023-03-20T05:05:25.528Z,29.30
2023-03-20T05:07:52.371Z,27.63
2023-03-20T05:10:33.213Z,25.45
2023-03-20T05:13:06.367Z,25.50
2023-03-20T05:16:01.528Z,23.70
2023-03-20T05:18:51.383Z,24.35
2023-03-20T05:21:37.742Z,23.27
2023-03-20T05:24:15.380Z,23.23
2023-03-20T05:27:02.078Z,25.90
2023-03-20T05:29:49.912Z,19.98
2023-03-20T05:32:30.465Z,23.58
2023-03-20T05:35:12.265Z,26.58
2023-03-20T05:40:39.119Z,23.67
2023-03-20T05:43:21.386Z,27.80
2023-03-20T05:46:04.804Z,27.60
2023-03-20T05:48:40.064Z,21.38
2023-03-20T05:51:27.263Z,27.08
2023-03-20T05:54:16.725Z,24.20
2023-03-20T05:56:59.182Z,23.23
2023-03-20T05:59:26.134Z,23.67
2023-03-20T06:02:12.177Z,26.70
2023-03-20T06:04:44.173Z,23.58
2023-03-20T06:07:27.673Z,21.45
2023-03-20T06:10:04.769Z,25.38
2023-03-20T06:12:31.969Z,19.60
2023-03-20T06:14:58.619Z,25.40
2023-03-20T06:17:26.940Z,21.90
2023-03-20T06:20:01.066Z,21.42
2023-03-20T06:22:29.315Z,24.02
2023-03-20T06:24:57.180Z,22.08
2023-03-20T06:27:31.092Z,21.00
2023-03-20T06:29:58.211Z,25.60
2023-03-20T06:32:31.108Z,22.92
2023-03-20T06:35:00.137Z,21.88
2023-03-20T06:37:27.059Z,18.25
2023-03-20T06:40:01.019Z,20.40
2023-03-20T06:42:28.050Z,21.48
2023-03-20T06:44:56.378Z,15.90
2023-03-20T06:47:38.563Z,18.55
2023-03-20T06:50:06.634Z,16.73
2023-03-20T06:52:33.810Z,17.55
2023-03-20T06:55:31.992Z,17.02
2023-03-20T06:57:58.546Z,18.98
2023-03-20T07:00:26.004Z,16.67
2023-03-20T07:02:53.262Z,14.50
2023-03-20T07:05:20.020Z,17.83
2023-03-20T07:07:47.096Z,14.32
2023-03-20T07:10:14.279Z,19.00
2023-03-20T07:12:48.385Z,13.23
2023-03-20T07:15:15.310Z,14.30
2023-03-20T07:17:41.871Z,18.20
2023-03-20T07:20:09.949Z,13.35
2023-03-20T07:22:36.934Z,15.52
2023-03-20T07:25:16.856Z,15.07
2023-03-20T07:27:50.146Z,12.57
2023-03-20T07:30:20.370Z,14.98
2023-03-20T07:32:48.921Z,14.40
2023-03-20T07:35:16.112Z,14.70
2023-03-20T07:37:43.957Z,13.35
2023-03-20T07:40:11.151Z,13.63
2023-03-20T07:42:45.530Z,13.40
2023-03-20T07:45:14.278Z,14.23
2023-03-20T07:47:46.063Z,11.68
2023-03-20T07:50:12.642Z,12.77
2023-03-20T07:52:46.724Z,14.65
2023-03-20T07:55:13.788Z,17.88
2023-03-20T07:57:40.384Z,16.38
2023-03-20T08:00:08.838Z,15.00
2023-03-20T08:02:38.309Z,15.07
2023-03-20T08:05:05.748Z,14.52
2023-03-20T08:07:35.539Z,14.63
2023-03-20T08:10:03.672Z,15.02
2023-03-20T08:12:30.194Z,17.90
2023-03-20T08:14:56.736Z,14.48
2023-03-20T08:17:23.326Z,14.98
2023-03-20T08:19:50.148Z,13.70
2023-03-20T08:22:16.939Z,12.38
2023-03-20T08:24:43.545Z,13.52
2023-03-20T08:27:10.361Z,14.93
2023-03-20T08:29:36.895Z,14.38
2023-03-20T08:32:05.259Z,11.73
2023-03-20T08:34:33.458Z,14.70
2023-03-20T08:37:00.171Z,15.70
2023-03-20T08:39:26.687Z,14.18
2023-03-20T08:41:53.924Z,15.88
2023-03-20T08:44:20.647Z,12.82
2023-03-20T08:46:47.432Z,13.57
2023-03-20T08:49:14.151Z,15.38
2023-03-20T08:51:41.103Z,14.73
2023-03-20T08:54:07.609Z,10.77
2023-03-20T08:56:34.121Z,16.65
2023-03-20T08:59:00.697Z,12.45
2023-03-20T09:01:41.733Z,12.48
2023-03-20T09:04:14.653Z,14.70
2023-03-20T09:06:41.683Z,13.77
2023-03-20T09:09:08.382Z,12.23
2023-03-20T09:11:34.933Z,14.90
2023-03-20T09:14:01.488Z,13.18
2023-03-20T09:16:28.207Z,13.73
2023-03-20T09:18:54.998Z,14.90
2023-03-20T09:21:21.555Z,13.40
2023-03-20T09:23:48.180Z,13.00
2023-03-20T09:26:14.778Z,17.63
2023-03-20T09:28:41.330Z,15.88
2023-03-20T09:31:07.984Z,21.90
2023-03-20T09:33:34.509Z,16.10
2023-03-20T09:36:01.292Z,12.55
2023-03-20T09:38:27.830Z,15.07
2023-03-20T09:40:57.582Z,11.70
2023-03-20T09:43:34.392Z,15.63
2023-03-20T09:46:33.229Z,11.93
2023-03-20T09:49:30.563Z,18.20
2023-03-20T09:51:59.841Z,11.80
2023-03-20T09:54:52.633Z,18.00
2023-03-20T09:57:44.768Z,13.65
2023-03-20T10:00:18.758Z,13.32
2023-03-20T10:02:52.664Z,11.88
2023-03-20T10:05:39.280Z,14.43
2023-03-20T10:08:16.138Z,14.05
2023-03-20T10:10:52.124Z,17.13
2023-03-20T10:13:37.133Z,16.42
2023-03-20T10:16:38.491Z,10.70
2023-03-20T10:19:36.397Z,12.70
2023-03-20T10:22:16.878Z,14.25
2023-03-20T10:24:50.646Z,11.27
2023-03-20T10:27:40.608Z,11.27
2023-03-20T10:30:24.116Z,14.73
2023-03-20T10:32:57.053Z,8.60
2023-03-20T10:35:38.132Z,11.00
2023-03-20T10:38:11.903Z,8.85
2023-03-20T10:40:41.631Z,7.53
2023-03-20T10:43:19.612Z,10.07
2023-03-20T10:45:50.854Z,11.20
2023-03-20T10:48:37.119Z,14.68
2023-03-20T10:51:04.439Z,8.65
2023-03-20T10:53:37.507Z,8.40
2023-03-20T10:56:14.070Z,6.78
2023-03-20T10:58:47.092Z,11.23
2023-03-20T11:01:14.486Z,8.68
2023-03-20T11:03:41.329Z,11.65
2023-03-20T11:06:27.768Z,5.75
2023-03-20T11:08:54.445Z,13.50
2023-03-20T11:11:27.857Z,15.55
2023-03-20T11:13:55.395Z,9.02
2023-03-20T11:16:31.542Z,8.65
2023-03-20T11:19:06.185Z,8.52
2023-03-20T11:21:33.791Z,9.82
2023-03-20T11:24:01.330Z,10.00
2023-03-20T11:26:37.390Z,6.78
2023-03-20T11:29:07.979Z,12.50
2023-03-20T11:31:40.828Z,7.93
2023-03-20T11:34:07.474Z,7.47
2023-03-20T11:36:36.692Z,7.13
2023-03-20T11:39:13.462Z,5.70
2023-03-20T11:41:45.966Z,9.73
2023-03-20T11:47:03.576Z,7.10
2023-03-20T11:49:32.250Z,9.15
2023-03-20T11:52:12.441Z,11.80
2023-03-20T11:54:47.223Z,13.35
2023-03-20T11:57:35.992Z,7.75
2023-03-20T12:00:05.174Z,10.45
2023-03-20T12:02:32.407Z,9.75
2023-03-20T12:05:02.243Z,7.28
2023-03-20T12:07:37.854Z,11.70
2023-03-20T12:10:07.593Z,9.75
2023-03-20T12:12:59.142Z,10.60
2023-03-20T12:15:30.705Z,11.18
2023-03-20T12:18:11.000Z,13.95
2023-03-20T12:21:04.691Z,16.48
2023-03-20T12:23:34.053Z,15.50
2023-03-20T12:26:10.152Z,8.18
2023-03-20T12:28:48.220Z,10.30
2023-03-20T12:31:32.465Z,10.50
2023-03-20T12:34:11.550Z,9.82
2023-03-20T12:36:42.573Z,10.88
2023-03-20T12:39:16.069Z,9.90
2023-03-20T12:42:08.465Z,11.52
2023-03-20T12:44:51.015Z,9.57
2023-03-20T12:47:23.721Z,12.68
2023-03-20T12:50:29.802Z,15.00
2023-03-20T12:53:20.829Z,16.33
2023-03-20T12:56:01.870Z,14.57
2023-03-20T12:58:52.772Z,18.58
2023-03-20T13:01:22.288Z,12.60
2023-03-20T13:04:41.890Z,16.20
2023-03-20T13:07:19.412Z,18.85
2023-03-20T13:10:08.893Z,15.15
2023-03-20T13:12:47.596Z,16.83
2023-03-20T13:15:22.678Z,15.20
2023-03-20T13:17:49.157Z,12.50
2023-03-20T13:20:32.228Z,18.52
2023-03-20T13:22:58.722Z,13.48
2023-03-20T13:25:43.335Z,16.60
2023-03-20T13:28:35.153Z,11.35
2023-03-20T13:31:23.417Z,16.17
2023-03-20T13:34:19.133Z,15.55
2023-03-20T13:36:54.726Z,12.85
2023-03-20T13:39:33.743Z,15.40
2023-03-20T13:42:04.112Z,18.45
2023-03-20T13:44:33.631Z,12.50
2023-03-20T13:47:15.789Z,18.38
2023-03-20T13:49:52.355Z,17.05
2023-03-20T13:52:48.667Z,14.75
2023-03-20T13:55:38.179Z,18.33
2023-03-20T13:58:47.405Z,13.32
2023-03-20T14:01:47.310Z,17.00
2023-03-20T14:04:18.781Z,17.58
2023-03-20T14:06:51.981Z,12.85
2023-03-20T14:09:31.837Z,18.17
2023-03-20T14:12:08.567Z,11.43
2023-03-20T14:14:49.508Z,13.00
2023-03-20T14:17:21.007Z,17.27
2023-03-20T14:19:48.886Z,15.23
2023-03-20T14:22:36.679Z,11.38
2023-03-20T14:25:13.885Z,15.63
2023-03-20T14:28:06.902Z,15.25
2023-03-20T14:30:38.448Z,17.20
2023-03-20T14:33:05.431Z,14.00
2023-03-20T14:35:38.211Z,16.98
2023-03-20T14:38:25.641Z,19.33
2023-03-20T14:41:12.167Z,14.60
2023-03-20T14:43:59.108Z,17.90
2023-03-20T14:46:31.698Z,14.63
2023-03-20T14:51:39.430Z,20.02
2023-03-20T14:54:21.012Z,10.85
2023-03-20T14:56:49.186Z,13.70
2023-03-20T14:59:18.135Z,13.38
2023-03-20T15:01:56.846Z,16.65
2023-03-20T15:04:31.302Z,18.98
2023-03-20T15:07:01.988Z,19.58
2023-03-20T15:09:31.262Z,17.10
2023-03-20T15:12:05.245Z,14.85
2023-03-20T15:14:45.408Z,18.58
2023-03-20T15:17:21.389Z,13.38
2023-03-20T15:19:50.699Z,14.40
2023-03-20T15:22:20.425Z,13.90
2023-03-20T15:24:55.873Z,17.38
2023-03-20T15:27:26.133Z,14.50
2023-03-20T15:29:55.466Z,18.08
2023-03-20T15:32:22.532Z,16.00
2023-03-20T15:34:51.024Z,16.33
2023-03-20T15:37:23.369Z,15.68
2023-03-20T15:39:55.384Z,19.23
2023-03-20T15:42:24.719Z,14.65
2023-03-20T15:44:54.235Z,19.25
2023-03-20T15:47:23.201Z,17.88
2023-03-20T15:49:56.059Z,20.90
2023-03-20T15:52:37.853Z,14.32
2023-03-20T15:55:10.966Z,15.93
2023-03-20T15:57:40.492Z,14.57
2023-03-20T16:00:17.752Z,17.95
2023-03-20T16:02:48.526Z,10.80
2023-03-20T16:05:17.059Z,15.63
2023-03-20T16:07:43.832Z,14.18
2023-03-20T16:10:27.520Z,14.48
2023-03-20T16:12:55.224Z,18.70
2023-03-20T16:15:27.678Z,12.05
2023-03-20T16:17:57.650Z,11.38
2023-03-20T16:20:27.197Z,16.83
2023-03-20T16:22:59.428Z,13.70
2023-03-20T16:25:26.128Z,12.38
2023-03-20T16:27:53.257Z,10.30
2023-03-20T16:30:24.868Z,19.00
2023-03-20T16:32:58.436Z,23.40
2023-03-20T16:35:29.870Z,13.55
2023-03-20T16:38:02.323Z,11.50
2023-03-20T16:40:34.810Z,12.35
2023-03-20T16:45:44.399Z,15.27
2023-03-20T16:48:13.817Z,17.25
2023-03-20T16:50:45.448Z,17.73
2023-03-20T16:53:15.294Z,19.35
2023-03-20T16:55:51.113Z,15.75
2023-03-20T16:58:28.296Z,13.35
2023-03-20T17:01:06.346Z,10.32
2023-03-20T17:04:14.579Z,8.68
2023-03-20T17:06:47.497Z,14.13
2023-03-20T17:09:13.966Z,23.55
2023-03-20T17:11:47.412Z,14.73
2023-03-20T17:14:14.080Z,13.68
2023-03-20T17:16:40.821Z,12.98
2023-03-20T17:19:14.691Z,12.57
2023-03-20T17:21:41.722Z,18.40
2023-03-20T17:24:09.333Z,14.10
2023-03-20T17:26:35.877Z,15.23
2023-03-20T17:29:02.868Z,11.48
2023-03-20T17:31:29.537Z,17.45
2023-03-20T17:33:56.199Z,9.57
2023-03-20T17:36:26.633Z,13.13
2023-03-20T17:38:54.562Z,10.00
2023-03-20T17:41:22.771Z,11.32
2023-03-20T17:43:51.378Z,14.30
2023-03-20T17:46:21.834Z,15.27
2023-03-20T17:48:49.285Z,11.20
2023-03-20T17:51:15.905Z,11.48
2023-03-20T17:53:43.537Z,17.60
2023-03-20T17:56:15.541Z,15.88
2023-03-20T17:58:45.890Z,18.00
2023-03-20T18:01:13.687Z,13.02
2023-03-20T18:03:40.691Z,12.43
2023-03-20T18:06:07.545Z,11.45
2023-03-20T18:08:34.101Z,15.27
2023-03-20T18:11:00.689Z,12.30
2023-03-20T18:13:27.262Z,17.08
2023-03-20T18:15:56.842Z,14.63
2023-03-20T18:18:24.252Z,11.70
2023-03-20T18:20:52.164Z,16.73
2023-03-20T18:23:18.807Z,15.25
2023-03-20T18:25:45.731Z,18.33
2023-03-20T18:28:18.422Z,13.48
2023-03-20T18:30:45.184Z,11.43
2023-03-20T18:33:12.053Z,13.23
2023-03-20T18:35:38.899Z,14.20
2023-03-20T18:38:05.865Z,18.98
2023-03-20T18:40:35.837Z,13.13
2023-03-20T18:43:03.500Z,14.57
2023-03-20T18:45:31.772Z,13.88
2023-03-20T18:47:58.706Z,13.95
2023-03-20T18:50:35.102Z,16.52
2023-03-20T18:53:05.229Z,12.90
2023-03-20T18:55:31.845Z,15.90
2023-03-20T18:57:59.229Z,13.45
2023-03-20T19:00:40.405Z,15.27
2023-03-20T19:03:08.302Z,10.75
2023-03-20T19:05:34.856Z,10.88
2023-03-20T19:08:03.199Z,10.00
2023-03-20T19:10:36.686Z,13.20
2023-03-20T19:13:05.421Z,15.52
2023-03-20T19:15:35.497Z,19.02
2023-03-20T19:18:03.558Z,14.65
2023-03-20T19:20:30.315Z,16.65
2023-03-20T19:22:57.844Z,14.18
2023-03-20T19:25:24.403Z,12.80
2023-03-20T19:27:50.917Z,14.63
2023-03-20T19:30:23.743Z,12.73
2023-03-20T19:32:50.383Z,11.77
2023-03-20T19:38:04.305Z,13.98
2023-03-20T19:40:34.447Z,13.68
2023-03-20T19:43:03.730Z,22.77
2023-03-20T19:45:38.418Z,18.48
2023-03-20T19:48:15.395Z,25.38
2023-03-20T19:50:43.844Z,22.58
2023-03-20T19:53:12.389Z,15.27
2023-03-20T19:55:39.583Z,13.02
2023-03-20T19:58:06.539Z,20.25
2023-03-20T20:03:24.867Z,22.77
2023-03-20T20:05:52.884Z,20.50
2023-03-20T20:08:38.284Z,16.70
2023-03-20T20:11:07.577Z,17.45
2023-03-20T20:13:40.125Z,18.58
2023-03-20T20:16:13.601Z,22.65
2023-03-20T20:18:40.179Z,17.75
2023-03-20T20:21:59.927Z,19.40
2023-03-20T20:23:53.296Z,19.13
2023-03-20T20:26:19.892Z,18.92
2023-03-20T20:28:46.574Z,19.63
2023-03-20T20:31:13.167Z,15.25
2023-03-20T20:33:39.971Z,20.30
2023-03-20T20:38:58.062Z,19.08
2023-03-20T20:41:25.923Z,22.98
2023-03-20T20:46:38.941Z,20.98
2023-03-20T20:49:18.386Z,20.35
2023-03-20T20:51:45.990Z,16.40
2023-03-20T20:54:12.618Z,20.88
2023-03-20T20:56:39.192Z,21.67
2023-03-20T20:59:07.127Z,22.98
2023-03-20T21:01:34.498Z,23.25
2023-03-20T21:04:02.208Z,20.88
2023-03-20T21:06:57.882Z,20.67
2023-03-20T21:09:15.346Z,20.95
2023-03-20T21:11:41.878Z,27.88
2023-03-20T21:14:08.433Z,24.77
2023-03-20T21:16:34.931Z,20.65
2023-03-20T21:19:01.630Z,25.42
2023-03-20T21:21:28.278Z,26.63
2023-03-20T21:23:55.335Z,21.25
2023-03-20T21:26:22.409Z,23.83
2023-03-20T21:28:48.904Z,22.38
2023-03-20T21:31:30.252Z,24.88
2023-03-20T21:33:57.864Z,19.60
2023-03-20T21:36:24.613Z,20.50
2023-03-20T21:39:07.458Z,20.20
2023-03-20T21:41:37.758Z,18.27
2023-03-20T21:44:05.803Z,25.42
2023-03-20T21:52:54.664Z,18.38
2023-03-20T21:55:40.912Z,22.27
2023-03-20T22:03:33.791Z,25.15
2023-03-20T22:15:23.289Z,16.60
2023-03-20T22:26:11.278Z,16.63
2023-03-20T22:37:35.434Z,16.63
2023-03-20T22:42:49.660Z,20.20
2023-03-20T22:45:08.898Z,20.77
2023-03-20T22:47:36.088Z,21.70
2023-03-20T22:50:02.717Z,21.90
2023-03-20T22:52:45.616Z,15.30
2023-03-20T22:55:16.498Z,17.02
2023-03-20T22:57:52.875Z,22.40
2023-03-20T23:00:27.195Z,19.90
2023-03-20T23:02:57.466Z,16.52
2023-03-20T23:05:27.026Z,16.80
2023-03-20T23:07:53.610Z,15.57
2023-03-20T23:10:23.824Z,19.40
2023-03-20T23:12:50.348Z,16.40
2023-03-20T23:15:16.981Z,16.42
2023-03-20T23:17:43.479Z,19.75
2023-03-20T23:20:13.590Z,21.95
2023-03-20T23:22:42.564Z,20.05
2023-03-20T23:25:18.507Z,17.20
2023-03-20T23:27:50.366Z,25.48
2023-03-20T23:30:16.942Z,19.77
2023-03-20T23:32:43.451Z,16.25
2023-03-20T23:35:10.256Z,19.77
2023-03-20T23:37:36.924Z,23.27
2023-03-20T23:40:04.688Z,24.52
2023-03-20T23:42:31.372Z,21.88
2023-03-20T23:45:04.458Z,18.70
2023-03-20T23:47:44.561Z,17.92
2023-03-20T23:50:20.660Z,22.33
2023-03-20T23:53:03.628Z,20.40
2023-03-20T23:58:02.909Z,16.02
